• Join FlightAware (Why Join?)
  • Login
  • US Flag 
04:08AM EST


 

Airport Tracker/Info


-or-


 

Live Flight TrackerFlight Track Log ✈ N27XP ✈ 04-Sep-2013 ✈ KMSP - KSOP

Flight Track Log - Related Links

Times and Time Zones

All times are in EDT time to prevent confusion due to time zone crossing. See the N27XP flight status page for this flight to view local times or setup timezone preferences in your user account.

Time Position Orientation Groundspeed Altitude Reporting Facility
EDT Latitude Longitude Course Direction KTS MPH feet Rate Location/Type
04:55PM 44.8833 -93.3167 125° Southeast 232 267 3,900  Level Minneapolis TRACON
04:56PM 44.8583 -93.3897 244° Southwest 252 290 6,000 1,860 Climbing Minneapolis Center
04:57PM 44.7822 -93.4161 194° South 288 331 7,600 1,560 Climbing Minneapolis Center
04:58PM 44.7028 -93.3797 162° South 324 373 9,300 1,560 Climbing Minneapolis Center
04:59PM 44.6467 -93.2369 119° Southeast 368 423 10,900 1,500 Climbing Minneapolis Center
05:00PM 44.5292 -92.5842 125° Southeast  Level Estimated
05:00PM 44.5964 -93.1050 118° Southeast 390 449 12,400  Level Minneapolis Center
05:01PM 44.5436 -92.9669 118° Southeast 405 466 13,800 1,200 Climbing Minneapolis Center
05:02PM 44.4883 -92.8250 119° Southeast 415 478 14,900 900 Climbing Minneapolis Center
05:03PM 44.4328 -92.6811 118° Southeast 422 486 15,700 1,200 Climbing Minneapolis Center
05:04PM 44.3658 -92.5100 119° Southeast 421 484 17,400 1,500 Climbing Minneapolis Center
05:05PM 44.3086 -92.3686 119° Southeast 419 482 18,900 1,260 Climbing Minneapolis Center
05:06PM 44.2489 -92.2278 121° Southeast 423 487 20,100 1,200 Climbing Minneapolis Center
05:07PM 44.1872 -92.0878 122° Southeast 424 488 21,500 1,200 Climbing Minneapolis Center
05:08PM 44.1253 -91.9478 122° Southeast 424 488 22,700 1,320 Climbing Minneapolis Center
05:09PM 44.0506 -91.7742 121° Southeast 435 501 24,300 1,260 Climbing Minneapolis Center
05:10PM 43.9917 -91.6400 121° Southeast 440 506 25,400 1,080 Climbing Minneapolis Center
05:11PM 43.9278 -91.4972 122° Southeast 438 504 26,600 960 Climbing Minneapolis Center
05:12PM 43.8450 -91.3664 131° Southeast 450 518 27,500 960 Climbing Minneapolis Center
05:13PM 43.7339 -91.2222 137° Southeast 458 527 28,700 960 Climbing Minneapolis Center
05:14PM 43.6414 -91.0992 136° Southeast 461 531 29,600 900 Climbing Minneapolis Center
05:15PM 43.5669 -90.9992 136° Southeast 468 539 30,400 960 Climbing Chicago Center
05:16PM 43.4742 -90.8756 136° Southeast 467 537 31,400 900 Climbing Chicago Center
05:17PM 43.3794 -90.7486 136° Southeast 473 544 32,300 840 Climbing Chicago Center
05:18PM 43.2850 -90.6225 136° Southeast 474 545 33,200 840 Climbing Chicago Center
05:19PM 43.1908 -90.4961 136° Southeast 475 547 34,100 960 Climbing Chicago Center
05:20PM 43.0758 -90.3467 136° Southeast 476 548 35,200 840 Climbing Chicago Center
05:21PM 42.9797 -90.2211 136° Southeast 479 551 35,900 660 Climbing Chicago Center
05:23PM 42.8833 -90.0933 136° Southeast 483 556 36,600 660 Climbing Chicago Center
05:24PM 42.7844 -89.9678 137° Southeast 487 560 37,300 600 Climbing Chicago Center
05:25PM 42.6867 -89.8417 137° Southeast 487 560 37,900 300 Climbing Chicago Center
05:26PM 42.5681 -89.6878 136° Southeast 493 567 38,000  Climbing Chicago Center
05:27PM 42.4650 -89.5578 137° Southeast 504 580 38,000  Level Chicago Center
05:28PM 42.3614 -89.4253 137° Southeast 512 589 38,000 60 Level Chicago Center
05:29PM 42.2569 -89.2956 137° Southeast 510 587 38,200 420 Climbing Chicago Center
05:30PM 42.1550 -89.1664 137° Southeast 508 585 38,900 360 Climbing Chicago Center
05:31PM 42.0328 -89.0114 137° Southeast 506 582 39,000  Climbing Chicago Center
05:32PM 41.9294 -88.8828 137° Southeast 509 586 39,000  Level Chicago Center
05:33PM 41.8239 -88.7503 137° Southeast 518 596 39,000  Level Chicago Center
05:34PM 41.7189 -88.6208 137° Southeast 517 595 39,000  Level Chicago Center
05:35PM 41.6147 -88.4922 137° Southeast 515 593 39,000  Level Chicago Center
05:36PM 41.4892 -88.3406 138° Southeast 514 592 39,000  Level Chicago Center
05:37PM 41.3847 -88.2158 138° Southeast 515 593 39,000  Level Chicago Center
05:38PM 41.2811 -88.0908 138° Southeast 525 604 39,000  Level Chicago Center
05:39PM 41.1569 -87.9389 137° Southeast 518 596 39,000  Level Chicago Center
05:40PM 41.0531 -87.8119 137° Southeast 514 592 39,000  Level Chicago Center
05:41PM 40.9492 -87.6867 138° Southeast 512 589 39,000  Level Chicago Center
05:42PM 40.8444 -87.5608 138° Southeast 512 589 39,000  Level Chicago Center
05:43PM 40.7475 -87.4267 134° Southeast 511 588 39,000  Level Chicago Center
05:44PM 40.6389 -87.2578 130° Southeast 508 585 39,000  Level Chicago Center
05:45PM 40.5475 -87.1186 131° Southeast 507 583 39,000  Level Chicago Center
05:46PM 40.4575 -86.9789 130° Southeast 509 586 39,000  Level Chicago Center
05:47PM 40.3658 -86.8381 130° Southeast 510 587 39,000  Level Chicago Center
05:48PM 40.2767 -86.6967 130° Southeast 506 582 39,000  Level Chicago Center
05:49PM 40.1858 -86.5542 130° Southeast 508 585 39,000  Level Chicago Center
05:50PM 40.0789 -86.3847 129° Southeast 504 580 39,000  Level Chicago Center
05:51PM 39.9878 -86.2422 130° Southeast 507 583 39,000  Level Chicago Center
05:53PM 39.8964 -86.0992 130° Southeast 503 579 39,000  Level Chicago Center
05:54PM 39.8047 -85.9567 130° Southeast 502 578 39,000  Level Chicago Center
05:55PM 39.7128 -85.8186 131° Southeast 501 577 39,000  Level Chicago Center
05:56PM 39.6222 -85.6819 131° Southeast 502 578 39,000  Level Chicago Center
05:57PM 39.5342 -85.5467 130° Southeast 496 571 39,000  Level Chicago Center
05:58PM 39.3900 -85.3306 131° Southeast 496 571 39,000  Level Indianapolis Center
05:59PM 39.3003 -85.1947 130° Southeast 498 573 39,000  Level Indianapolis Center
06:00PM 39.2097 -85.0608 131° Southeast 496 571 39,000  Level Indianapolis Center
06:01PM 39.1211 -84.9278 131° Southeast 492 566 39,000  Level Indianapolis Center
06:02PM 39.0278 -84.7900 131° Southeast 494 568 39,000  Level Indianapolis Center
06:03PM 38.9389 -84.6578 131° Southeast 490 564 39,000  Level Indianapolis Center
06:04PM 38.8333 -84.5036 131° Southeast 485 558 39,000  Level Indianapolis Center
06:05PM 38.7442 -84.3728 131° Southeast 489 563 39,000  Level Indianapolis Center
06:06PM 38.6567 -84.2433 131° Southeast 486 559 39,000 -300 Level Indianapolis Center
06:07PM 38.5706 -84.1181 131° Southeast 483 556 38,500 -720 Descending Indianapolis Center
06:08PM 38.4650 -83.9631 131° Southeast 492 566 37,600 -960 Descending Indianapolis Center
06:10PM 38.3736 -83.8386 133° Southeast 484 557 36,500 -1,140 Descending Indianapolis Center
06:11PM 38.2850 -83.7103 131° Southeast 480 552 35,300 -780 Descending Indianapolis Center
06:12PM 38.1958 -83.5781 131° Southeast 486 559 35,000 -180 Descending Indianapolis Center
06:13PM 38.1050 -83.4506 132° Southeast 486 559 35,000  Level Indianapolis Center
06:14PM 37.9981 -83.2978 132° Southeast 493 567 35,000  Level Indianapolis Center
06:15PM 37.9064 -83.1692 132° Southeast 491 565 35,000  Level Indianapolis Center
06:16PM 37.8142 -83.0408 132° Southeast 491 565 35,000  Level Indianapolis Center
06:17PM 37.7225 -82.9097 131° Southeast 494 568 35,000  Level Indianapolis Center
06:18PM 37.6303 -82.7836 133° Southeast 487 560 35,000  Level Indianapolis Center
06:19PM 37.5386 -82.6550 132° Southeast 488 562 35,000  Level Indianapolis Center
06:20PM 37.4303 -82.5056 132° Southeast 491 565 35,000  Level Indianapolis Center
06:21PM 37.3372 -82.3769 132° Southeast 492 566 35,000  Level Indianapolis Center
06:22PM 37.2450 -82.2508 133° Southeast 489 563 35,000  Level Indianapolis Center
06:23PM 37.1519 -82.1242 133° Southeast 489 563 35,000  Level Indianapolis Center
06:24PM 37.0594 -81.9986 133° Southeast 488 562 35,000  Level Indianapolis Center
06:25PM 36.9675 -81.8744 133° Southeast 484 557 35,000 -600 Level Indianapolis Center
06:26PM 36.8756 -81.7511 133° Southeast 483 556 33,800 -1,500 Descending Indianapolis Center
06:27PM 36.7681 -81.6092 133° Southeast 482 555 31,900 -1,860 Descending Indianapolis Center
06:28PM 36.6717 -81.4764 132° Southeast 488 562 29,800 -1,380 Descending Atlanta Center
06:29PM 36.5817 -81.3553 133° Southeast 488 562 29,000 -420 Descending Atlanta Center
06:30PM 36.4892 -81.2319 133° Southeast 488 562 29,000 -480 Level Atlanta Center
06:31PM 36.3944 -81.1086 134° Southeast 495 570 28,100 -1,500 Descending Atlanta Center
06:32PM 36.3019 -80.9858 133° Southeast 489 563 26,100 -2,040 Descending Atlanta Center
06:33PM 36.2025 -80.8558 133° Southeast 483 556 24,100 -1,560 Descending Atlanta Center
06:34PM 36.1142 -80.7411 134° Southeast 477 549 23,000 -600 Descending Atlanta Center
06:35PM 36.0256 -80.6267 134° Southeast 457 526 23,000  Level Atlanta Center
06:36PM 35.9408 -80.5147 133° Southeast 457 526 23,000 -840 Level Atlanta Center
06:37PM 35.8522 -80.4033 134° Southeast 457 526 21,400 -1,860 Descending Atlanta Center
06:38PM 35.7675 -80.2944 134° Southeast 450 518 19,300 -1,200 Descending Atlanta Center
06:39PM 35.6894 -80.1983 135° Southeast 444 511 19,000 -180 Descending Atlanta Center
06:40PM 35.5953 -80.1261 148° Southeast 417 480 19,000  Level Atlanta Center
06:41PM 35.5061 -80.0769 156° South 373 429 19,000 -1,140 Level Atlanta Center
06:42PM 35.4278 -80.0044 143° Southeast 332 382 16,700 -1,740 Descending Washington Center
06:43PM 35.3625 -79.9117 131° Southeast 322 371 15,400 -2,880 Descending Washington Center
06:44PM 35.2981 -79.8394 138° Southeast 322 371 11,000 -2,220 Descending Washington Center
06:45PM 35.2319 -79.7647 137° Southeast 322 371 11,000  Level Washington Center
06:46PM 35.1797 -79.7061 137° Southeast 322 371 11,000  Level Washington Center
06:48PM 35.1797 -79.7061 338° Northwest 322 371 11,000  Level Washington Center
06:50PM 35.1797 -79.7061 338° Northwest 322 371 11,000  Level Washington Center
06:52PM 35.1797 -79.7061 338° Northwest 322 371 11,000  Level Washington Center